Time;durP1;ratioP1;P1;durP2;ratioP2;P2;SDS_P1;SDS_P2;PMS_P1;PMS_P2;Temp;Humidity;BMP_temperature;BMP_pressure;BME280_temperature;BME280_humidity;BME280_pressure;Samples;Min_cycle;Max_cycle;Signal;HPM_P1;HPM_P2
2023/04/29 00:00:30;;;;;;;34.50;21.10;;;;;;;;;;5004957;28;20032;-73
2023/04/29 00:02:56;;;;;;;37.17;21.50;;;;;;;;;;5010337;28;20506;-72
2023/04/29 00:05:21;;;;;;;37.90;21.55;;;;;;;;;;5038711;28;20064;-73
2023/04/29 00:07:48;;;;;;;37.17;20.27;;;;;;;;;;5005471;28;20463;-73
2023/04/29 00:10:14;;;;;;;37.20;19.58;;;;;;;;;;5039665;28;20123;-73
2023/04/29 00:12:41;;;;;;;34.00;18.85;;;;;;;;;;5009552;28;22392;-72
2023/04/29 00:15:07;;;;;;;29.20;20.20;;;;;;;;;;5005775;28;20045;-72
2023/04/29 00:17:35;;;;;;;32.33;20.52;;;;;;;;;;5007959;28;20030;-73
2023/04/29 00:20:03;;;;;;;32.53;20.02;;;;;;;;;;5037697;28;20091;-72
2023/04/29 00:22:28;;;;;;;29.23;19.10;;;;;;;;;;5039172;28;20702;-73
2023/04/29 00:24:54;;;;;;;34.80;19.00;;;;;;;;;;5006235;28;20041;-73
2023/04/29 00:27:19;;;;;;;37.38;18.67;;;;;;;;;;5016269;28;20445;-73
2023/04/29 00:29:44;;;;;;;38.17;20.20;;;;;;;;;;5035933;28;20037;-72
2023/04/29 00:32:10;;;;;;;32.67;19.98;;;;;;;;;;5005532;28;20049;-72
2023/04/29 00:34:35;;;;;;;30.33;19.33;;;;;;;;;;5011206;28;20057;-73
2023/04/29 00:37:00;;;;;;;36.20;20.80;;;;;;;;;;5007444;28;20056;-72
2023/04/29 00:39:26;;;;;;;34.38;20.15;;;;;;;;;;5053143;28;20128;-72
2023/04/29 00:41:51;;;;;;;31.35;18.40;;;;;;;;;;5009442;28;20564;-73
2023/04/29 00:44:17;;;;;;;35.95;20.05;;;;;;;;;;5009065;28;20402;-71
2023/04/29 00:46:42;;;;;;;30.33;18.20;;;;;;;;;;5009357;28;20198;-72
2023/04/29 00:49:08;;;;;;;33.97;17.48;;;;;;;;;;5006360;28;20805;-73
2023/04/29 00:51:36;;;;;;;29.55;16.98;;;;;;;;;;4986565;28;20561;-72
2023/04/29 00:54:05;;;;;;;32.75;17.23;;;;;;;;;;4987184;28;20042;-72
2023/04/29 00:56:31;;;;;;;25.85;17.00;;;;;;;;;;4986369;28;20301;-72
2023/04/29 00:58:57;;;;;;;32.78;18.30;;;;;;;;;;4987611;28;20042;-73
2023/04/29 01:01:23;;;;;;;31.05;18.13;;;;;;;;;;4988218;28;20565;-73
2023/04/29 01:03:49;;;;;;;31.58;17.67;;;;;;;;;;5019481;28;20038;-70
2023/04/29 01:06:14;;;;;;;32.85;17.30;;;;;;;;;;4987533;28;20057;-73
2023/04/29 01:08:47;;;;;;;29.42;17.80;;;;;;;;;;5017162;28;20702;-73
2023/04/29 01:11:15;;;;;;;29.38;18.52;;;;;;;;;;4987242;28;20049;-73
2023/04/29 01:13:42;;;;;;;36.60;18.00;;;;;;;;;;4988711;28;20419;-72
2023/04/29 01:16:11;;;;;;;34.17;18.15;;;;;;;;;;4987764;28;20087;-73
2023/04/29 01:18:53;;;;;;;29.33;17.52;;;;;;;;;;4988022;28;20169;-73
2023/04/29 01:21:19;;;;;;;32.78;18.25;;;;;;;;;;4990043;28;20664;-73
2023/04/29 01:23:44;;;;;;;30.15;17.20;;;;;;;;;;4992666;28;20038;-73
2023/04/29 01:26:10;;;;;;;28.38;17.45;;;;;;;;;;4982959;28;20072;-73
2023/04/29 01:28:44;;;;;;;28.80;17.25;;;;;;;;;;4992737;28;20236;-74
2023/04/29 01:31:25;;;;;;;28.55;17.67;;;;;;;;;;5021049;28;20164;-73
2023/04/29 01:33:58;;;;;;;26.67;17.35;;;;;;;;;;4988918;28;20040;-74
2023/04/29 01:36:35;;;;;;;32.80;16.80;;;;;;;;;;5020758;28;20578;-73
2023/04/29 01:39:13;;;;;;;36.92;18.58;;;;;;;;;;4992624;28;20718;-73
2023/04/29 01:41:42;;;;;;;32.40;17.77;;;;;;;;;;4991394;28;20030;-73
2023/04/29 01:44:11;;;;;;;29.67;18.25;;;;;;;;;;4996529;28;20042;-73
2023/04/29 01:46:37;;;;;;;40.10;19.25;;;;;;;;;;4986271;28;20211;-73
2023/04/29 01:49:02;;;;;;;33.25;18.73;;;;;;;;;;5021723;28;20189;-73
2023/04/29 01:51:28;;;;;;;34.05;18.15;;;;;;;;;;4990393;28;20107;-73
2023/04/29 01:53:53;;;;;;;37.85;18.85;;;;;;;;;;4989085;28;20034;-73
2023/04/29 01:56:19;;;;;;;36.08;17.98;;;;;;;;;;4988296;28;20640;-72
2023/04/29 01:58:44;;;;;;;36.13;18.30;;;;;;;;;;5021906;28;20198;-73
2023/04/29 02:01:10;;;;;;;43.25;19.08;;;;;;;;;;5013520;28;20042;-69
2023/04/29 02:03:36;;;;;;;38.78;19.23;;;;;;;;;;5001354;28;20038;-73
2023/04/29 02:06:01;;;;;;;34.78;17.80;;;;;;;;;;4989139;28;20146;-70
2023/04/29 02:08:26;;;;;;;30.13;18.05;;;;;;;;;;4998417;28;20030;-74
2023/04/29 02:10:55;;;;;;;39.13;18.35;;;;;;;;;;4988232;28;20568;-73
2023/04/29 02:13:21;;;;;;;42.60;18.75;;;;;;;;;;4987924;28;20365;-74
2023/04/29 02:15:48;;;;;;;40.03;18.75;;;;;;;;;;4998517;28;20029;-73
2023/04/29 02:18:16;;;;;;;52.63;20.13;;;;;;;;;;4988478;28;20038;-73
2023/04/29 02:20:41;;;;;;;33.65;19.55;;;;;;;;;;5020412;28;20129;-71
2023/04/29 02:23:07;;;;;;;41.80;20.40;;;;;;;;;;4990404;28;20041;-72
2023/04/29 02:25:32;;;;;;;43.33;20.80;;;;;;;;;;4987373;28;20045;-74
2023/04/29 02:28:05;;;;;;;42.70;21.02;;;;;;;;;;4990597;28;20069;-72
2023/04/29 02:30:31;;;;;;;44.97;21.58;;;;;;;;;;5021164;28;20040;-72
2023/04/29 02:32:58;;;;;;;52.17;22.88;;;;;;;;;;4989769;28;20131;-72
2023/04/29 02:35:23;;;;;;;43.05;23.52;;;;;;;;;;4993782;28;20037;-72
2023/04/29 02:37:51;;;;;;;49.10;24.77;;;;;;;;;;5007856;28;20398;-73
2023/04/29 02:40:16;;;;;;;50.45;24.63;;;;;;;;;;5009165;28;20098;-73
2023/04/29 02:42:42;;;;;;;50.03;26.00;;;;;;;;;;5040533;28;20126;-73
2023/04/29 02:45:07;;;;;;;47.47;24.63;;;;;;;;;;5007475;28;20398;-73
2023/04/29 02:47:32;;;;;;;52.47;24.88;;;;;;;;;;5010327;28;20049;-74
2023/04/29 02:49:58;;;;;;;43.00;23.80;;;;;;;;;;5041754;28;20056;-74
2023/04/29 02:52:23;;;;;;;45.25;23.73;;;;;;;;;;5031918;28;20044;-71
2023/04/29 02:54:48;;;;;;;45.42;24.15;;;;;;;;;;5009036;28;20492;-72
2023/04/29 02:57:13;;;;;;;49.80;24.27;;;;;;;;;;5009665;28;20041;-72
2023/04/29 02:59:39;;;;;;;50.97;23.77;;;;;;;;;;5039073;28;20268;-74
2023/04/29 03:02:04;;;;;;;45.28;23.05;;;;;;;;;;5009223;28;20132;-71
2023/04/29 03:04:29;;;;;;;44.83;22.73;;;;;;;;;;5010090;28;20044;-72
2023/04/29 03:06:55;;;;;;;45.17;22.15;;;;;;;;;;5039261;28;20041;-71
2023/04/29 03:09:21;;;;;;;44.35;22.95;;;;;;;;;;5009915;28;20041;-72
2023/04/29 03:11:47;;;;;;;45.85;22.17;;;;;;;;;;5009038;28;20644;-71
2023/04/29 03:14:12;;;;;;;48.35;22.63;;;;;;;;;;5005913;28;20038;-72
2023/04/29 03:16:37;;;;;;;43.97;22.55;;;;;;;;;;5016135;28;20433;-72
2023/04/29 03:19:02;;;;;;;48.33;23.02;;;;;;;;;;5010602;28;20065;-71
2023/04/29 03:21:28;;;;;;;46.63;24.10;;;;;;;;;;5009202;28;20037;-71
2023/04/29 03:23:56;;;;;;;49.53;24.42;;;;;;;;;;5008833;28;20064;-72
2023/04/29 03:26:23;;;;;;;47.22;23.75;;;;;;;;;;5009240;28;20041;-72
2023/04/29 03:28:48;;;;;;;45.45;24.85;;;;;;;;;;5006641;28;20059;-72
2023/04/29 03:31:15;;;;;;;57.05;26.45;;;;;;;;;;5005511;28;20480;-72
2023/04/29 03:33:40;;;;;;;46.25;25.50;;;;;;;;;;5007594;28;20487;-73
2023/04/29 03:36:07;;;;;;;42.65;23.17;;;;;;;;;;5006947;28;20056;-71
2023/04/29 03:38:32;;;;;;;47.92;23.63;;;;;;;;;;5011712;28;20038;-71
2023/04/29 03:40:58;;;;;;;48.15;24.55;;;;;;;;;;5011418;28;22018;-72
2023/04/29 03:43:23;;;;;;;47.47;23.45;;;;;;;;;;5005977;28;20071;-72
2023/04/29 03:45:48;;;;;;;42.67;22.65;;;;;;;;;;5006283;28;20420;-71
2023/04/29 03:48:15;;;;;;;37.50;22.60;;;;;;;;;;5040404;28;20044;-72
2023/04/29 03:50:41;;;;;;;40.92;22.27;;;;;;;;;;5006912;28;20486;-72
2023/04/29 03:53:09;;;;;;;48.05;21.20;;;;;;;;;;5005730;28;20140;-72
2023/04/29 03:55:34;;;;;;;39.97;21.63;;;;;;;;;;5006381;28;20034;-73
2023/04/29 03:58:02;;;;;;;40.40;21.08;;;;;;;;;;5008331;28;21877;-72
2023/04/29 04:00:30;;;;;;;38.80;19.88;;;;;;;;;;5006642;28;20326;-72
2023/04/29 04:02:55;;;;;;;36.17;19.13;;;;;;;;;;5039359;28;20628;-72
2023/04/29 04:05:23;;;;;;;39.63;20.65;;;;;;;;;;5009872;28;20045;-72
2023/04/29 04:07:51;;;;;;;31.60;19.27;;;;;;;;;;5007907;28;20041;-72
2023/04/29 04:10:19;;;;;;;30.10;18.83;;;;;;;;;;5010705;28;20122;-72
2023/04/29 04:12:49;;;;;;;32.60;18.50;;;;;;;;;;5040774;28;20719;-73
2023/04/29 04:15:15;;;;;;;41.17;20.52;;;;;;;;;;5008235;28;20452;-72
2023/04/29 04:17:41;;;;;;;43.85;21.20;;;;;;;;;;5007030;28;20203;-72
2023/04/29 04:20:06;;;;;;;42.17;21.15;;;;;;;;;;5009063;28;20484;-72
2023/04/29 04:22:32;;;;;;;35.47;21.63;;;;;;;;;;5008279;28;20053;-73
2023/04/29 04:24:57;;;;;;;43.67;21.38;;;;;;;;;;5012946;28;20448;-72
2023/04/29 04:27:22;;;;;;;39.17;22.70;;;;;;;;;;5010659;28;20024;-72
2023/04/29 04:29:47;;;;;;;40.30;22.25;;;;;;;;;;5006639;28;20029;-73
2023/04/29 04:32:17;;;;;;;42.08;22.80;;;;;;;;;;5037477;28;20454;-73
2023/04/29 04:34:42;;;;;;;42.15;21.83;;;;;;;;;;5005961;28;20441;-73
2023/04/29 04:37:08;;;;;;;47.30;22.00;;;;;;;;;;5037630;28;20061;-73
2023/04/29 04:39:33;;;;;;;36.95;20.83;;;;;;;;;;5005280;28;20054;-73
2023/04/29 04:41:58;;;;;;;47.20;21.60;;;;;;;;;;5038635;28;20037;-74
2023/04/29 04:44:24;;;;;;;36.88;20.30;;;;;;;;;;5004433;28;20652;-72
2023/04/29 04:46:49;;;;;;;35.05;18.67;;;;;;;;;;5037526;28;20041;-72
2023/04/29 04:49:15;;;;;;;30.70;18.17;;;;;;;;;;5012397;28;20914;-72
2023/04/29 04:51:43;;;;;;;33.33;18.48;;;;;;;;;;5039525;28;20048;-72
2023/04/29 04:54:11;;;;;;;38.25;17.23;;;;;;;;;;5009730;28;20606;-73
2023/04/29 04:56:36;;;;;;;39.30;17.83;;;;;;;;;;5037670;28;20033;-72
2023/04/29 04:59:02;;;;;;;37.58;16.83;;;;;;;;;;5005032;28;20042;-72
2023/04/29 05:01:27;;;;;;;37.20;16.98;;;;;;;;;;5005700;28;20298;-72
2023/04/29 05:03:56;;;;;;;30.20;15.73;;;;;;;;;;5007656;28;20040;-73
2023/04/29 05:06:23;;;;;;;34.90;15.98;;;;;;;;;;5004533;28;20608;-73
2023/04/29 05:08:48;;;;;;;32.03;15.50;;;;;;;;;;5036461;28;20037;-72
2023/04/29 05:11:17;;;;;;;31.40;15.95;;;;;;;;;;5005505;28;20064;-73
2023/04/29 05:13:43;;;;;;;33.40;16.20;;;;;;;;;;5003094;28;20041;-72
2023/04/29 05:16:08;;;;;;;31.05;15.40;;;;;;;;;;5035435;28;20685;-73
2023/04/29 05:18:33;;;;;;;29.67;15.23;;;;;;;;;;5003716;28;20576;-71
2023/04/29 05:21:01;;;;;;;30.90;14.60;;;;;;;;;;5004158;28;20757;-74
2023/04/29 05:23:26;;;;;;;28.30;14.55;;;;;;;;;;5022060;28;20522;-75
2023/04/29 05:25:54;;;;;;;31.67;15.73;;;;;;;;;;5006432;28;20057;-73
2023/04/29 05:28:20;;;;;;;33.35;16.13;;;;;;;;;;5035916;28;20076;-74
2023/04/29 05:30:50;;;;;;;27.80;14.55;;;;;;;;;;5036062;28;20610;-77
2023/04/29 05:33:19;;;;;;;32.60;15.07;;;;;;;;;;5005214;28;20040;-73
2023/04/29 05:35:44;;;;;;;30.77;14.30;;;;;;;;;;5036813;28;20029;-74
2023/04/29 05:38:09;;;;;;;29.77;14.70;;;;;;;;;;5008767;28;21046;-73
2023/04/29 05:40:35;;;;;;;38.88;14.80;;;;;;;;;;5005986;28;20135;-74
2023/04/29 05:43:00;;;;;;;25.98;13.80;;;;;;;;;;5009141;28;20525;-75
2023/04/29 05:45:25;;;;;;;22.83;12.90;;;;;;;;;;5038174;28;20068;-73
2023/04/29 05:47:51;;;;;;;29.83;12.90;;;;;;;;;;5040476;28;20505;-75
2023/04/29 05:50:16;;;;;;;30.80;13.43;;;;;;;;;;5009655;28;20088;-73
2023/04/29 05:52:46;;;;;;;22.75;12.00;;;;;;;;;;5006412;28;20747;-73
2023/04/29 05:55:12;;;;;;;26.30;12.32;;;;;;;;;;5014716;28;20068;-73
2023/04/29 05:57:37;;;;;;;32.08;12.55;;;;;;;;;;5010021;28;20171;-75
2023/04/29 06:00:05;;;;;;;22.85;12.35;;;;;;;;;;5026992;28;20146;-74
2023/04/29 06:02:31;;;;;;;30.23;12.82;;;;;;;;;;5014440;28;20046;-75
2023/04/29 06:04:56;;;;;;;24.83;11.60;;;;;;;;;;5043533;28;20132;-75
2023/04/29 06:07:25;;;;;;;19.10;11.13;;;;;;;;;;5014451;28;20179;-74
2023/04/29 06:09:53;;;;;;;21.85;11.32;;;;;;;;;;5015176;28;20070;-75
2023/04/29 06:12:18;;;;;;;20.00;11.30;;;;;;;;;;5014772;28;20120;-73
2023/04/29 06:14:46;;;;;;;26.42;11.43;;;;;;;;;;5029961;28;20037;-75
2023/04/29 06:17:11;;;;;;;23.73;10.40;;;;;;;;;;5044439;28;20149;-75
2023/04/29 06:19:37;;;;;;;24.27;10.70;;;;;;;;;;5014756;28;20482;-74
2023/04/29 06:22:02;;;;;;;24.73;10.85;;;;;;;;;;4993231;28;20068;-73
2023/04/29 06:24:27;;;;;;;21.73;9.90;;;;;;;;;;4995758;28;20415;-73
2023/04/29 06:26:53;;;;;;;22.13;9.57;;;;;;;;;;4996574;28;20042;-74
2023/04/29 06:29:20;;;;;;;24.65;10.45;;;;;;;;;;4994771;28;20153;-74
2023/04/29 06:31:45;;;;;;;17.67;9.20;;;;;;;;;;4995497;28;20778;-73
2023/04/29 06:34:11;;;;;;;19.00;8.85;;;;;;;;;;4999804;28;20041;-75
2023/04/29 06:36:37;;;;;;;21.05;8.52;;;;;;;;;;4996463;28;20049;-76
2023/04/29 06:39:02;;;;;;;16.63;8.38;;;;;;;;;;5023607;28;20042;-73
2023/04/29 06:41:30;;;;;;;21.02;8.18;;;;;;;;;;4996512;28;20042;-74
2023/04/29 06:43:58;;;;;;;19.73;8.30;;;;;;;;;;4989066;28;20042;-74
2023/04/29 06:46:27;;;;;;;17.33;7.10;;;;;;;;;;4989821;28;22106;-72
2023/04/29 06:48:53;;;;;;;16.33;7.30;;;;;;;;;;4991587;28;20757;-74
2023/04/29 06:51:18;;;;;;;15.02;7.13;;;;;;;;;;4987767;28;20049;-70
2023/04/29 06:53:43;;;;;;;15.38;7.70;;;;;;;;;;4986800;28;20448;-70
2023/04/29 06:56:11;;;;;;;16.85;6.80;;;;;;;;;;4989430;28;20033;-71
2023/04/29 06:58:37;;;;;;;15.48;7.00;;;;;;;;;;5014085;28;20033;-72
2023/04/29 07:01:03;;;;;;;13.38;7.35;;;;;;;;;;5004170;28;20041;-72
2023/04/29 07:03:28;;;;;;;19.33;7.03;;;;;;;;;;5008307;28;20533;-71
2023/04/29 07:05:55;;;;;;;15.82;6.60;;;;;;;;;;5006435;28;20041;-74
2023/04/29 07:08:22;;;;;;;15.70;6.93;;;;;;;;;;5037044;28;20041;-72
2023/04/29 07:10:54;;;;;;;12.18;6.75;;;;;;;;;;5006729;28;20869;-73
2023/04/29 07:13:20;;;;;;;12.38;6.75;;;;;;;;;;5007881;28;20509;-71
2023/04/29 07:15:45;;;;;;;14.00;7.05;;;;;;;;;;5006308;28;20174;-72
2023/04/29 07:18:10;;;;;;;13.32;6.55;;;;;;;;;;5007804;28;20502;-72
2023/04/29 07:20:36;;;;;;;12.98;6.40;;;;;;;;;;5007452;28;20280;-72
2023/04/29 07:23:01;;;;;;;13.45;6.22;;;;;;;;;;5006833;28;20156;-68
2023/04/29 07:25:28;;;;;;;12.50;6.35;;;;;;;;;;5039967;28;20033;-71
2023/04/29 07:27:53;;;;;;;12.88;5.93;;;;;;;;;;5006694;28;20041;-69
2023/04/29 07:30:20;;;;;;;12.18;5.97;;;;;;;;;;5006663;28;20037;-70
2023/04/29 07:32:50;;;;;;;14.15;6.25;;;;;;;;;;5006045;28;20049;-71
2023/04/29 07:35:16;;;;;;;9.07;5.25;;;;;;;;;;5006215;28;20137;-70
2023/04/29 07:37:42;;;;;;;13.27;5.43;;;;;;;;;;5011140;28;20033;-71
2023/04/29 07:40:07;;;;;;;11.90;5.05;;;;;;;;;;5035095;28;20029;-69
2023/04/29 07:42:33;;;;;;;11.35;5.20;;;;;;;;;;5008843;28;20045;-71
2023/04/29 07:44:58;;;;;;;13.07;5.65;;;;;;;;;;5004780;28;20064;-70
2023/04/29 07:47:24;;;;;;;11.27;4.82;;;;;;;;;;5003032;28;20061;-71
2023/04/29 07:49:49;;;;;;;11.57;4.70;;;;;;;;;;5002987;28;21881;-72
2023/04/29 07:52:14;;;;;;;10.43;3.88;;;;;;;;;;5004286;28;20045;-70
2023/04/29 07:54:40;;;;;;;13.23;4.38;;;;;;;;;;5006490;28;20627;-69
2023/04/29 07:57:05;;;;;;;13.82;4.97;;;;;;;;;;5001192;28;20466;-71
2023/04/29 07:59:30;;;;;;;11.82;4.65;;;;;;;;;;5002738;28;20030;-70
2023/04/29 08:01:56;;;;;;;9.27;4.30;;;;;;;;;;5005490;28;20041;-70
2023/04/29 08:04:21;;;;;;;10.95;4.28;;;;;;;;;;5002461;28;20505;-69
2023/04/29 08:06:47;;;;;;;12.55;4.75;;;;;;;;;;5032662;28;20341;-71
2023/04/29 08:09:13;;;;;;;12.60;4.85;;;;;;;;;;5035800;28;20034;-71
2023/04/29 08:11:39;;;;;;;8.23;4.10;;;;;;;;;;5001774;28;20100;-69
2023/04/29 08:14:05;;;;;;;11.35;4.70;;;;;;;;;;5038721;28;20569;-69
2023/04/29 08:16:30;;;;;;;10.32;4.38;;;;;;;;;;5039369;28;20033;-70
2023/04/29 08:18:55;;;;;;;10.75;4.18;;;;;;;;;;5007941;28;20029;-74
2023/04/29 08:21:23;;;;;;;13.68;4.95;;;;;;;;;;5020777;28;20103;-69
2023/04/29 08:23:48;;;;;;;12.02;5.00;;;;;;;;;;5007323;28;20044;-68
2023/04/29 08:26:14;;;;;;;10.48;4.45;;;;;;;;;;5008601;28;20052;-68
2023/04/29 08:28:41;;;;;;;10.65;4.43;;;;;;;;;;5014364;28;20033;-69
2023/04/29 08:31:09;;;;;;;10.77;4.40;;;;;;;;;;5040549;28;20104;-70
2023/04/29 08:33:34;;;;;;;11.30;4.40;;;;;;;;;;5009237;28;20063;-68
2023/04/29 08:36:02;;;;;;;9.25;4.50;;;;;;;;;;5034698;28;20025;-69
2023/04/29 08:38:27;;;;;;;15.77;4.63;;;;;;;;;;5006615;28;20148;-71
2023/04/29 08:40:55;;;;;;;13.45;4.45;;;;;;;;;;5038291;28;20029;-72
2023/04/29 08:43:21;;;;;;;15.15;4.72;;;;;;;;;;5007117;28;20041;-72
2023/04/29 08:45:49;;;;;;;10.30;4.47;;;;;;;;;;5025720;28;20033;-71
2023/04/29 08:48:16;;;;;;;8.50;4.75;;;;;;;;;;5009002;28;20040;-68
2023/04/29 08:50:41;;;;;;;11.85;4.47;;;;;;;;;;5005064;28;20044;-70
2023/04/29 08:53:07;;;;;;;10.05;4.63;;;;;;;;;;5000942;28;20052;-68
2023/04/29 08:55:39;;;;;;;13.07;4.90;;;;;;;;;;5028380;28;20041;-69
2023/04/29 08:58:06;;;;;;;13.82;4.60;;;;;;;;;;5006015;28;20037;-71
2023/04/29 09:00:31;;;;;;;11.05;4.72;;;;;;;;;;5004858;28;20048;-71
2023/04/29 09:03:04;;;;;;;10.95;5.00;;;;;;;;;;5003468;28;20517;-71
2023/04/29 09:05:32;;;;;;;11.73;5.03;;;;;;;;;;4996778;28;20094;-67
2023/04/29 09:08:02;;;;;;;13.75;4.97;;;;;;;;;;5010653;28;20037;-69
2023/04/29 09:10:29;;;;;;;9.02;4.80;;;;;;;;;;5036187;28;20037;-69
2023/04/29 09:12:56;;;;;;;12.00;5.00;;;;;;;;;;5021384;28;20611;-72
2023/04/29 09:15:21;;;;;;;13.05;4.97;;;;;;;;;;5005538;28;20040;-71
2023/04/29 09:17:49;;;;;;;9.13;4.30;;;;;;;;;;5006331;28;20041;-69
2023/04/29 09:20:21;;;;;;;10.63;4.50;;;;;;;;;;5019496;28;20037;-68
2023/04/29 09:22:47;;;;;;;9.77;4.30;;;;;;;;;;5003256;28;20038;-73
2023/04/29 09:25:12;;;;;;;9.95;4.63;;;;;;;;;;5005241;28;20080;-72
2023/04/29 09:27:37;;;;;;;13.20;4.68;;;;;;;;;;5007690;28;20481;-69
2023/04/29 09:30:05;;;;;;;9.75;4.07;;;;;;;;;;5005433;28;20576;-68
2023/04/29 09:32:30;;;;;;;12.75;4.40;;;;;;;;;;5007258;28;20041;-69
2023/04/29 09:34:58;;;;;;;11.00;4.88;;;;;;;;;;5022189;28;20506;-68
2023/04/29 09:37:25;;;;;;;10.55;4.85;;;;;;;;;;5007037;28;20037;-69
2023/04/29 09:39:52;;;;;;;9.55;4.85;;;;;;;;;;5011512;28;20037;-69
2023/04/29 09:42:18;;;;;;;11.05;4.80;;;;;;;;;;5009887;28;20921;-68
2023/04/29 09:44:44;;;;;;;10.32;4.28;;;;;;;;;;5043672;28;20029;-69
2023/04/29 09:47:09;;;;;;;12.43;4.03;;;;;;;;;;5009487;28;20541;-67
2023/04/29 09:49:40;;;;;;;8.75;3.95;;;;;;;;;;5041700;28;20065;-69
2023/04/29 09:52:09;;;;;;;7.90;3.53;;;;;;;;;;5042598;28;20045;-72
2023/04/29 09:54:35;;;;;;;10.77;3.60;;;;;;;;;;5022687;28;20573;-69
2023/04/29 09:57:01;;;;;;;10.35;3.80;;;;;;;;;;5010252;28;20079;-71
2023/04/29 09:59:29;;;;;;;8.20;3.85;;;;;;;;;;5039985;28;20049;-70
2023/04/29 10:01:57;;;;;;;9.95;3.45;;;;;;;;;;5007120;28;20041;-69
2023/04/29 10:04:23;;;;;;;11.38;4.20;;;;;;;;;;5008603;28;20552;-68
2023/04/29 10:06:50;;;;;;;9.10;4.38;;;;;;;;;;5039853;28;20552;-68
2023/04/29 10:09:16;;;;;;;13.13;4.68;;;;;;;;;;5012897;28;20667;-72
2023/04/29 10:11:45;;;;;;;10.52;4.32;;;;;;;;;;5037772;28;22365;-71
2023/04/29 10:14:20;;;;;;;10.90;4.20;;;;;;;;;;5039018;28;20079;-70
2023/04/29 10:16:47;;;;;;;11.60;4.40;;;;;;;;;;5009525;28;20502;-72
2023/04/29 10:19:16;;;;;;;11.73;4.45;;;;;;;;;;5006520;28;20067;-68
2023/04/29 10:21:41;;;;;;;9.20;3.95;;;;;;;;;;5006390;28;20120;-72
2023/04/29 10:24:07;;;;;;;12.95;4.30;;;;;;;;;;5004525;28;20044;-69
2023/04/29 10:26:32;;;;;;;10.90;4.30;;;;;;;;;;5039633;28;20033;-69
2023/04/29 10:29:02;;;;;;;9.52;4.22;;;;;;;;;;5009675;28;20037;-69
2023/04/29 10:31:28;;;;;;;10.60;3.92;;;;;;;;;;5009560;28;20139;-69
2023/04/29 10:33:57;;;;;;;6.78;3.88;;;;;;;;;;5008378;28;20038;-69
2023/04/29 10:36:27;;;;;;;9.40;4.13;;;;;;;;;;5008934;28;20041;-71
2023/04/29 10:38:59;;;;;;;8.40;3.65;;;;;;;;;;5006690;28;20033;-67
2023/04/29 10:41:33;;;;;;;7.80;3.90;;;;;;;;;;5015209;28;20041;-67
2023/04/29 10:43:58;;;;;;;7.15;3.70;;;;;;;;;;5010089;28;20117;-66
2023/04/29 10:46:26;;;;;;;9.15;3.50;;;;;;;;;;5006889;28;20033;-69
2023/04/29 10:49:05;;;;;;;8.93;3.63;;;;;;;;;;5007783;28;20411;-70
2023/04/29 10:51:30;;;;;;;10.50;3.85;;;;;;;;;;5003964;28;21089;-69
2023/04/29 10:54:03;;;;;;;9.20;3.50;;;;;;;;;;5006585;28;20107;-70
2023/04/29 10:56:40;;;;;;;12.48;4.00;;;;;;;;;;5007112;28;20042;-68
2023/04/29 10:59:09;;;;;;;10.13;4.15;;;;;;;;;;5006377;28;20030;-68
2023/04/29 11:01:46;;;;;;;10.48;4.30;;;;;;;;;;5011118;28;20041;-69
2023/04/29 11:04:11;;;;;;;9.65;3.75;;;;;;;;;;5006707;28;20049;-70
2023/04/29 11:06:38;;;;;;;8.00;3.33;;;;;;;;;;5010354;28;20612;-66
2023/04/29 11:09:07;;;;;;;9.07;3.53;;;;;;;;;;5008878;28;20034;-68
2023/04/29 11:11:52;;;;;;;10.90;3.72;;;;;;;;;;5006797;28;20116;-67
2023/04/29 11:14:39;;;;;;;11.02;3.65;;;;;;;;;;5039580;28;20084;-70
2023/04/29 11:17:09;;;;;;;6.60;3.30;;;;;;;;;;5007602;28;20057;-68
2023/04/29 11:19:38;;;;;;;10.25;3.67;;;;;;;;;;5006869;28;20690;-70
2023/04/29 11:22:07;;;;;;;11.02;3.50;;;;;;;;;;5008118;28;20042;-70
2023/04/29 11:24:34;;;;;;;6.80;3.22;;;;;;;;;;5006299;28;20041;-66
2023/04/29 11:27:03;;;;;;;9.07;3.47;;;;;;;;;;5007315;28;20069;-69
2023/04/29 11:29:29;;;;;;;11.50;3.70;;;;;;;;;;5008744;28;20037;-72
2023/04/29 11:31:58;;;;;;;13.85;3.60;;;;;;;;;;5008816;28;20048;-71
2023/04/29 11:34:24;;;;;;;7.63;3.13;;;;;;;;;;5005291;28;20038;-69
2023/04/29 11:36:50;;;;;;;9.27;3.33;;;;;;;;;;5002484;28;20060;-71
2023/04/29 11:39:16;;;;;;;12.20;3.53;;;;;;;;;;5035248;28;22030;-71
2023/04/29 11:41:41;;;;;;;9.95;3.60;;;;;;;;;;5006566;28;20034;-72
2023/04/29 11:44:08;;;;;;;8.13;3.33;;;;;;;;;;5002453;28;20099;-70
2023/04/29 11:46:33;;;;;;;7.90;3.05;;;;;;;;;;5008029;28;20029;-69
2023/04/29 11:49:01;;;;;;;12.68;3.85;;;;;;;;;;5011023;28;20041;-70
2023/04/29 11:51:27;;;;;;;10.98;3.65;;;;;;;;;;5007440;28;20489;-68
2023/04/29 11:53:52;;;;;;;8.80;3.75;;;;;;;;;;5040010;28;20029;-69
2023/04/29 11:56:20;;;;;;;11.25;3.80;;;;;;;;;;5006619;28;20049;-68
2023/04/29 11:58:45;;;;;;;10.13;3.35;;;;;;;;;;5006961;28;20044;-68
2023/04/29 12:01:11;;;;;;;9.80;3.63;;;;;;;;;;5007634;28;20033;-70
2023/04/29 12:03:41;;;;;;;9.43;3.60;;;;;;;;;;5008147;28;20438;-68
2023/04/29 12:06:06;;;;;;;9.77;3.85;;;;;;;;;;5009331;28;20040;-69
2023/04/29 12:08:37;;;;;;;10.00;3.50;;;;;;;;;;5011978;28;21915;-70
2023/04/29 12:11:05;;;;;;;10.77;4.10;;;;;;;;;;5033364;28;20559;-72
2023/04/29 12:13:35;;;;;;;9.32;3.92;;;;;;;;;;5006927;28;22299;-71
2023/04/29 12:16:00;;;;;;;11.27;3.85;;;;;;;;;;5007939;28;20047;-70
2023/04/29 12:18:26;;;;;;;7.80;3.25;;;;;;;;;;5008253;28;20702;-71
2023/04/29 12:20:52;;;;;;;10.20;3.70;;;;;;;;;;5004926;28;20089;-70
2023/04/29 12:23:18;;;;;;;7.88;2.92;;;;;;;;;;5005595;28;20030;-71
2023/04/29 12:25:54;;;;;;;7.78;3.35;;;;;;;;;;5032752;28;20610;-69
2023/04/29 12:28:20;;;;;;;11.85;3.80;;;;;;;;;;5001171;28;20075;-67
2023/04/29 12:30:46;;;;;;;9.32;3.83;;;;;;;;;;5006238;28;20030;-72
2023/04/29 12:33:14;;;;;;;11.15;4.70;;;;;;;;;;5000839;28;20087;-69
2023/04/29 12:35:40;;;;;;;11.27;4.85;;;;;;;;;;5002951;28;20061;-69
2023/04/29 12:38:05;;;;;;;8.73;3.90;;;;;;;;;;5004355;28;20033;-71
2023/04/29 12:40:33;;;;;;;13.50;4.20;;;;;;;;;;5006641;28;20044;-71
2023/04/29 12:43:05;;;;;;;10.63;4.50;;;;;;;;;;5003087;28;20417;-69
2023/04/29 12:45:32;;;;;;;10.70;3.80;;;;;;;;;;5001940;28;20039;-71
2023/04/29 12:48:00;;;;;;;12.93;4.15;;;;;;;;;;5001945;28;20048;-69
2023/04/29 12:50:33;;;;;;;10.48;3.78;;;;;;;;;;5007215;28;20830;-71
2023/04/29 12:52:58;;;;;;;9.38;3.58;;;;;;;;;;5012339;28;20041;-72
2023/04/29 12:55:23;;;;;;;9.35;3.50;;;;;;;;;;5003139;28;20034;-71
2023/04/29 12:57:49;;;;;;;7.45;3.40;;;;;;;;;;5001775;28;20584;-71
2023/04/29 13:00:15;;;;;;;8.63;3.15;;;;;;;;;;5002303;28;20104;-73
2023/04/29 13:02:40;;;;;;;12.60;3.40;;;;;;;;;;5033429;28;20038;-72
2023/04/29 13:05:06;;;;;;;9.35;2.95;;;;;;;;;;5006489;28;20040;-71
2023/04/29 13:07:33;;;;;;;6.05;2.85;;;;;;;;;;5001990;28;20049;-70
2023/04/29 13:09:59;;;;;;;7.65;2.65;;;;;;;;;;5001821;28;20041;-70
2023/04/29 13:12:24;;;;;;;9.45;2.40;;;;;;;;;;5010004;28;20090;-72
2023/04/29 13:14:50;;;;;;;5.90;2.30;;;;;;;;;;5009809;28;20037;-70
2023/04/29 13:17:15;;;;;;;5.82;2.40;;;;;;;;;;5029077;28;20105;-71
2023/04/29 13:19:41;;;;;;;9.75;2.78;;;;;;;;;;5003435;28;20137;-72
2023/04/29 13:22:08;;;;;;;6.88;2.47;;;;;;;;;;5009106;28;20033;-71
2023/04/29 13:24:35;;;;;;;8.18;2.72;;;;;;;;;;5007099;28;20166;-73
2023/04/29 13:27:01;;;;;;;7.13;2.78;;;;;;;;;;5015090;28;20094;-71
2023/04/29 13:29:27;;;;;;;6.50;2.30;;;;;;;;;;5026048;28;20153;-71
2023/04/29 13:31:52;;;;;;;7.30;2.63;;;;;;;;;;4986676;28;20292;-72
2023/04/29 13:34:17;;;;;;;6.18;2.45;;;;;;;;;;4992220;28;20029;-71
2023/04/29 13:36:43;;;;;;;5.47;2.45;;;;;;;;;;4990269;28;20092;-72
2023/04/29 13:39:09;;;;;;;6.28;2.20;;;;;;;;;;4992491;28;20060;-72
2023/04/29 13:41:34;;;;;;;6.97;2.50;;;;;;;;;;4990242;28;20042;-70
2023/04/29 13:43:59;;;;;;;7.03;2.63;;;;;;;;;;5018841;28;20065;-70
2023/04/29 13:46:26;;;;;;;6.90;2.50;;;;;;;;;;4990101;28;20033;-71
2023/04/29 13:48:51;;;;;;;7.32;2.50;;;;;;;;;;4992695;28;20038;-71
2023/04/29 13:51:16;;;;;;;10.02;2.75;;;;;;;;;;4989493;28;20047;-69
2023/04/29 13:53:45;;;;;;;6.82;2.67;;;;;;;;;;4989574;28;20427;-70
2023/04/29 13:56:11;;;;;;;10.65;3.20;;;;;;;;;;4988587;28;20041;-69
2023/04/29 13:58:36;;;;;;;16.45;3.30;;;;;;;;;;4987253;28;20087;-70
2023/04/29 14:01:04;;;;;;;9.05;2.80;;;;;;;;;;5020145;28;20441;-68
2023/04/29 14:03:29;;;;;;;10.93;3.00;;;;;;;;;;4988125;28;20115;-69
2023/04/29 14:05:54;;;;;;;7.45;2.60;;;;;;;;;;5007117;28;20034;-69
2023/04/29 14:08:20;;;;;;;13.57;3.13;;;;;;;;;;4990500;28;20037;-68
2023/04/29 14:10:45;;;;;;;7.10;2.92;;;;;;;;;;5020605;28;20160;-69
2023/04/29 14:13:10;;;;;;;8.98;3.17;;;;;;;;;;5016831;28;20077;-68
2023/04/29 14:15:35;;;;;;;9.65;2.50;;;;;;;;;;5009499;28;20549;-69
2023/04/29 14:18:03;;;;;;;10.43;2.70;;;;;;;;;;4995143;28;20105;-68
2023/04/29 14:20:28;;;;;;;9.30;3.20;;;;;;;;;;4989577;28;20391;-68
2023/04/29 14:22:53;;;;;;;7.57;2.83;;;;;;;;;;4989621;28;20038;-70